CheckWX is a tool to help pilots better visualize weather data.  It is not intended as a substitute for an official pre-flight weather briefing.

14:45:12 UTC

KIAH METAR
George Bush Intercontinental / Houston Airport
Houston, Texas, USA
Current

26 mins ago

KIAH 201419Z 15019KT 10SM SCT018 28/24 A2989 RMK AO2 T02830244
Observed
May-20 @ 14:19 UTC
Wind
  • 150° at 19 KTS
Visibility
10 SM
Flight Rules
VFR
Cloud Levels
  • Scattered at 1,800' AGL
Temperature
28°C / 82°F
Dewpoint
24°C / 75°F
Heat Index
32°C / 89°F
Humidity
79%
Altimeter
29.89" Hg
Pressure
1012.22 hPa
Previous

52 mins ago

KIAH 201353Z 15016KT 8SM BKN018 BKN070 28/24 A2990 RMK AO2 SLP122 T02780244
Observed
May-20 @ 13:53 UTC
Wind
  • 150° at 16 KTS
Visibility
8 SM
Flight Rules
MVFR
Cloud Levels
  • Broken at 1,800' AGL
  • Broken at 7,000' AGL
Temperature
28°C / 82°F
Dewpoint
24°C / 75°F
Heat Index
32°C / 89°F
Humidity
79%
Altimeter
29.9" Hg
Pressure
1012.52 hPa
Previous

1 hour ago

KIAH 201316Z 15012KT 8SM BKN020 BKN070 27/25 A2989 RMK AO2 T02670250
Observed
May-20 @ 13:16 UTC
Wind
  • 150° at 12 KTS
Visibility
8 SM
Flight Rules
MVFR
Cloud Levels
  • Broken at 2,000' AGL
  • Broken at 7,000' AGL
Temperature
27°C / 81°F
Dewpoint
25°C / 77°F
Heat Index
31°C / 88°F
Humidity
89%
Altimeter
29.89" Hg
Pressure
1012.22 hPa